EISG/SXL METAR and TAF weather

Enter ICAO airport designator
Station Type Date Time Source
EISG METAR 2018/07/20 14:30 UTC NOAA

EISG 201430Z 31010KT 5000 -DZ BKN005 OVC010 15/15 Q1014


Station Type Date Time Source
EISG Decoded METAR 2018/07/20 14:30 UTC NOAA

Station name not available
Jul 20, 2018 - 10:30 AM EDT / 2018.07.20 1430 UTC
Wind: from the NW (310 degrees) at 12 MPH (10 KT):0
Visibility: 3 mile(s):0
Sky conditions: overcast
Weather: light drizzle
Temperature: 59 F (15 C)
Dew Point: 59 F (15 C)
Relative Humidity: 100%
Pressure (altimeter): 29.94 in. Hg (1014 hPa)
ob: EISG 201430Z 31010KT 5000 -DZ BKN005 OVC010 15/15 Q1014
cycle: 14

Station Type Date Time Source
EISG TAF UTC NOAA

Error!


Example: see airport list